Time;durP1;ratioP1;P1;durP2;ratioP2;P2;SDS_P1;SDS_P2;PMS_P1;PMS_P2;Temp;Humidity;BMP_temperature;BMP_pressure;BME280_temperature;BME280_humidity;BME280_pressure;Samples;Min_cycle;Max_cycle;Signal;HPM_P1;HPM_P2
2022/09/10 00:01:17;;;;;;;8.52;1.88;;;22.10;91.70;;;;;;5032342;28;20025;-72
2022/09/10 00:03:43;;;;;;;5.63;1.77;;;22.10;91.70;;;;;;5033780;28;20105;-72
2022/09/10 00:06:09;;;;;;;6.47;1.88;;;22.10;91.70;;;;;;5033676;28;20505;-70
2022/09/10 00:08:36;;;;;;;7.70;2.08;;;22.20;91.70;;;;;;5033589;28;20075;-73
2022/09/10 00:11:04;;;;;;;6.53;1.80;;;22.10;91.70;;;;;;5033641;28;20014;-72
2022/09/10 00:13:30;;;;;;;5.95;1.75;;;22.10;91.70;;;;;;5033389;28;20038;-72
2022/09/10 00:15:58;;;;;;;5.60;1.77;;;22.10;91.80;;;;;;5031813;28;20187;-72
2022/09/10 00:18:24;;;;;;;8.82;2.03;;;22.10;91.90;;;;;;5033413;28;20056;-72
2022/09/10 00:20:54;;;;;;;9.55;1.92;;;22.00;91.90;;;;;;5033677;28;20115;-72
2022/09/10 00:23:26;;;;;;;9.07;2.22;;;22.10;92.00;;;;;;5033361;28;20073;-73
2022/09/10 00:25:53;;;;;;;6.17;1.53;;;22.10;91.90;;;;;;5033345;28;20013;-71
2022/09/10 00:28:20;;;;;;;8.38;1.80;;;22.10;91.90;;;;;;5032538;28;20271;-72
2022/09/10 00:30:48;;;;;;;8.35;2.03;;;22.00;91.80;;;;;;5033080;28;20381;-72
2022/09/10 00:33:15;;;;;;;9.60;2.05;;;22.00;91.90;;;;;;5033330;28;20018;-72
2022/09/10 00:35:42;;;;;;;7.95;2.00;;;22.00;92.10;;;;;;5033360;28;20033;-72
2022/09/10 00:38:09;;;;;;;8.40;2.05;;;22.00;92.20;;;;;;5033141;28;20088;-72
2022/09/10 00:40:35;;;;;;;11.52;2.20;;;22.00;92.20;;;;;;5032851;28;20029;-72
2022/09/10 00:43:01;;;;;;;8.45;2.08;;;22.10;92.20;;;;;;5033008;28;20124;-73
2022/09/10 00:45:30;;;;;;;7.30;2.40;;;21.90;92.30;;;;;;5032979;28;20505;-73
2022/09/10 00:48:01;;;;;;;9.25;2.47;;;22.00;92.30;;;;;;5031861;28;20079;-73
2022/09/10 00:50:32;;;;;;;8.95;2.58;;;22.00;92.30;;;;;;5033092;28;20104;-70
2022/09/10 00:53:02;;;;;;;9.15;2.38;;;21.90;92.40;;;;;;5033028;28;20417;-71
2022/09/10 00:55:28;;;;;;;7.00;2.25;;;22.00;92.40;;;;;;5032870;28;20017;-69
2022/09/10 00:57:59;;;;;;;8.93;2.22;;;22.00;92.70;;;;;;5032823;28;20033;-71
2022/09/10 01:00:24;;;;;;;7.13;2.20;;;22.00;92.40;;;;;;5031531;28;20095;-69
2022/09/10 01:02:51;;;;;;;7.88;2.17;;;22.00;92.70;;;;;;5032842;28;20482;-68
2022/09/10 01:05:17;;;;;;;7.38;2.08;;;22.00;92.40;;;;;;5032755;28;20068;-69
2022/09/10 01:07:43;;;;;;;8.13;2.22;;;22.00;92.50;;;;;;5031405;28;20474;-68
2022/09/10 01:10:20;;;;;;;5.65;1.90;;;22.00;92.50;;;;;;5032790;28;20026;-68
2022/09/10 01:13:31;;;;;;;7.10;2.40;;;22.00;92.40;;;;;;5032570;28;20022;-68
2022/09/10 01:16:13;;;;;;;7.47;2.45;;;22.10;92.50;;;;;;5011038;28;20054;-69
2022/09/10 01:18:48;;;;;;;;;;;22.00;92.40;;;;;;5030453;28;20069;-68
2022/09/10 01:21:43;;;;;;;7.22;2.88;;;22.20;92.30;;;;;;5032812;28;19913;-73
2022/09/10 01:24:23;;;;;;;9.23;2.40;;;22.00;92.30;;;;;;5032794;28;20026;-72
2022/09/10 01:27:26;;;;;;;7.90;3.13;;;22.00;92.30;;;;;;5032567;28;20030;-72
2022/09/10 01:30:25;;;;;;;9.65;2.30;;;22.00;92.40;;;;;;5031811;28;20029;-73
2022/09/10 01:33:17;;;;;;;4.57;2.35;;;22.10;92.30;;;;;;5022465;28;20478;-72
2022/09/10 01:35:52;;;;;;;8.40;2.95;;;22.00;92.20;;;;;;5024015;28;20113;-70
2022/09/10 01:38:30;;;;;;;8.95;2.22;;;22.00;92.40;;;;;;5032556;28;20079;-72
2022/09/10 01:40:56;;;;;;;11.82;2.95;;;22.00;92.50;;;;;;5034544;28;20034;-72
2022/09/10 01:43:22;;;;;;;9.32;2.80;;;22.00;92.40;;;;;;5036047;28;20506;-72
2022/09/10 01:46:03;;;;;;;10.63;2.78;;;22.00;92.40;;;;;;5036070;28;20421;-72
2022/09/10 01:48:43;;;;;;;6.20;2.28;;;21.90;92.40;;;;;;5036265;28;20109;-71
2022/09/10 01:51:47;;;;;;;9.43;3.13;;;21.90;92.40;;;;;;5036099;28;20017;-73
2022/09/10 01:54:13;;;;;;;9.27;3.00;;;21.90;92.40;;;;;;5036197;28;20037;-71
2022/09/10 01:56:47;;;;;;;8.48;3.03;;;22.00;92.10;;;;;;5035722;28;20471;-71
2022/09/10 01:59:50;;;;;;;10.88;3.10;;;22.00;92.20;;;;;;5035676;28;20429;-72
2022/09/10 02:02:23;;;;;;;11.98;3.42;;;21.90;92.40;;;;;;5036013;28;20043;-72
2022/09/10 02:04:50;;;;;;;9.27;4.05;;;21.90;92.20;;;;;;5035752;28;20017;-73
2022/09/10 02:07:21;;;;;;;11.43;4.28;;;21.90;92.20;;;;;;5036134;28;20022;-72
2022/09/10 02:09:48;;;;;;;9.65;4.10;;;21.90;92.20;;;;;;5035853;28;20040;-72
2022/09/10 02:12:18;;;;;;;6.78;3.72;;;21.90;92.20;;;;;;5035636;28;20036;-72
2022/09/10 02:14:50;;;;;;;9.27;3.70;;;21.90;92.30;;;;;;5035493;28;20383;-69
2022/09/10 02:17:17;;;;;;;8.15;3.42;;;21.90;92.30;;;;;;5035444;28;20129;-69
2022/09/10 02:19:46;;;;;;;9.00;3.50;;;21.90;92.30;;;;;;5043024;28;20033;-69
2022/09/10 02:22:11;;;;;;;8.70;3.63;;;21.90;92.40;;;;;;5051215;28;20033;-69
2022/09/10 02:24:37;;;;;;;10.25;4.03;;;21.80;92.40;;;;;;5043283;28;20040;-70
2022/09/10 02:27:04;;;;;;;8.70;3.67;;;21.80;92.40;;;;;;5045040;28;20057;-68
2022/09/10 02:29:30;;;;;;;8.02;4.07;;;21.90;92.40;;;;;;5058895;28;20384;-69
2022/09/10 02:31:55;;;;;;;10.88;4.00;;;21.90;92.40;;;;;;5054995;28;20112;-69
2022/09/10 02:34:21;;;;;;;9.93;4.68;;;21.90;92.50;;;;;;5041533;28;20037;-69
2022/09/10 02:36:46;;;;;;;12.60;5.05;;;21.80;92.40;;;;;;5039176;28;20052;-68
2022/09/10 02:39:12;;;;;;;8.85;4.40;;;21.90;92.40;;;;;;5035147;28;20083;-72
2022/09/10 02:41:40;;;;;;;8.00;4.63;;;21.90;92.50;;;;;;5034793;28;20037;-68
2022/09/10 02:44:05;;;;;;;12.38;4.70;;;21.90;92.40;;;;;;5035791;28;20057;-72
2022/09/10 02:46:31;;;;;;;9.52;4.15;;;21.90;92.30;;;;;;5033755;28;20018;-69
2022/09/10 02:48:57;;;;;;;10.15;5.13;;;21.90;92.50;;;;;;5034710;28;20076;-69
2022/09/10 02:51:23;;;;;;;12.95;4.72;;;21.90;92.50;;;;;;5034838;28;20531;-69
2022/09/10 02:53:49;;;;;;;9.38;5.63;;;21.80;92.60;;;;;;5035353;28;20021;-69
2022/09/10 02:56:16;;;;;;;9.73;5.90;;;21.70;92.80;;;;;;5034627;28;20028;-72
2022/09/10 02:58:42;;;;;;;9.90;5.82;;;21.70;93.10;;;;;;5034707;28;20033;-69
2022/09/10 03:01:17;;;;;;;8.25;4.95;;;21.80;92.70;;;;;;5033425;28;20029;-72
2022/09/10 03:03:47;;;;;;;8.18;4.88;;;21.80;92.70;;;;;;5034976;28;20033;-72
2022/09/10 03:06:13;;;;;;;12.50;6.20;;;21.80;92.70;;;;;;5033447;28;20017;-69
2022/09/10 03:08:38;;;;;;;8.32;4.93;;;21.80;92.60;;;;;;5034235;28;20030;-69
2022/09/10 03:11:04;;;;;;;10.10;4.93;;;21.90;92.50;;;;;;5034686;28;20116;-69
2022/09/10 03:13:30;;;;;;;13.48;5.95;;;21.90;92.60;;;;;;5034695;28;20414;-69
2022/09/10 03:15:57;;;;;;;10.70;5.65;;;21.90;92.60;;;;;;5034905;28;20462;-69
2022/09/10 03:18:23;;;;;;;9.13;5.82;;;21.80;92.60;;;;;;5034755;28;20057;-70
2022/09/10 03:20:50;;;;;;;10.10;6.00;;;21.80;92.60;;;;;;5035053;28;20097;-72
2022/09/10 03:23:16;;;;;;;9.07;5.10;;;21.90;92.50;;;;;;5034691;28;20116;-73
2022/09/10 03:25:42;;;;;;;9.43;5.80;;;21.90;92.60;;;;;;5033498;28;20017;-72
2022/09/10 03:28:09;;;;;;;8.95;5.93;;;21.80;92.70;;;;;;5034357;28;20039;-72
2022/09/10 03:30:35;;;;;;;10.55;6.32;;;21.80;92.60;;;;;;5032213;28;20014;-72
2022/09/10 03:33:02;;;;;;;12.45;5.55;;;21.80;92.60;;;;;;5032170;28;20466;-72
2022/09/10 03:35:27;;;;;;;11.70;6.07;;;21.80;92.60;;;;;;5034359;28;20049;-71
2022/09/10 03:37:53;;;;;;;10.93;5.78;;;21.80;92.70;;;;;;5033839;28;20052;-71
2022/09/10 03:40:18;;;;;;;9.93;5.28;;;21.80;92.60;;;;;;5033233;28;20509;-70
2022/09/10 03:42:45;;;;;;;10.85;6.43;;;21.80;92.60;;;;;;5033682;28;20043;-71
2022/09/10 03:45:11;;;;;;;10.57;6.57;;;21.80;92.50;;;;;;5034507;28;20025;-69
2022/09/10 03:47:37;;;;;;;12.55;6.65;;;21.80;92.60;;;;;;5032617;28;20045;-69
2022/09/10 03:50:04;;;;;;;14.65;7.10;;;21.80;92.70;;;;;;5034057;28;20029;-69
2022/09/10 03:52:29;;;;;;;9.68;5.68;;;21.70;92.70;;;;;;5033421;28;20040;-70
2022/09/10 03:54:55;;;;;;;11.77;6.55;;;21.70;92.80;;;;;;5033749;28;20025;-69
2022/09/10 03:57:22;;;;;;;11.50;6.43;;;21.70;92.70;;;;;;5034131;28;20116;-70
2022/09/10 03:59:48;;;;;;;15.05;7.40;;;21.80;92.70;;;;;;5034182;28;20022;-69
2022/09/10 04:02:14;;;;;;;15.13;8.05;;;21.80;92.50;;;;;;5032992;28;20040;-70
2022/09/10 04:04:40;;;;;;;12.52;7.47;;;21.70;92.60;;;;;;5033585;28;20146;-69
2022/09/10 04:07:07;;;;;;;11.45;6.97;;;21.70;92.70;;;;;;5033346;28;20030;-70
2022/09/10 04:09:32;;;;;;;13.10;7.53;;;21.70;92.80;;;;;;5033426;28;20032;-69
2022/09/10 04:11:59;;;;;;;12.60;7.90;;;21.60;92.80;;;;;;5033411;28;20030;-71
2022/09/10 04:14:25;;;;;;;14.13;7.75;;;21.70;93.00;;;;;;5033547;28;20096;-72
2022/09/10 04:16:51;;;;;;;13.20;7.78;;;21.70;92.80;;;;;;5032362;28;20106;-72
2022/09/10 04:19:17;;;;;;;12.88;7.88;;;21.70;92.70;;;;;;5033362;28;20467;-72
2022/09/10 04:21:42;;;;;;;13.15;7.50;;;21.70;92.80;;;;;;5033185;28;20053;-72
2022/09/10 04:24:11;;;;;;;14.32;7.57;;;21.70;92.80;;;;;;5033416;28;20482;-72
2022/09/10 04:26:36;;;;;;;10.40;8.05;;;21.70;92.90;;;;;;5032389;28;20029;-72
2022/09/10 04:29:02;;;;;;;12.90;8.93;;;21.70;92.80;;;;;;5033209;28;20029;-72
2022/09/10 04:31:27;;;;;;;11.52;6.80;;;21.60;92.90;;;;;;5033404;28;20029;-70
2022/09/10 04:33:53;;;;;;;8.88;6.45;;;21.70;92.90;;;;;;5033262;28;20520;-72
2022/09/10 04:36:19;;;;;;;11.77;7.50;;;21.70;92.90;;;;;;5033014;28;20096;-72
2022/09/10 04:38:44;;;;;;;13.30;7.50;;;21.70;92.90;;;;;;5031863;28;20018;-71
2022/09/10 04:41:11;;;;;;;12.90;8.85;;;21.70;92.90;;;;;;5032878;28;20090;-73
2022/09/10 04:43:37;;;;;;;11.00;7.75;;;21.70;92.80;;;;;;5033033;28;20034;-68
2022/09/10 04:46:03;;;;;;;13.68;8.90;;;21.70;93.00;;;;;;5039195;28;20071;-69
2022/09/10 04:48:28;;;;;;;13.60;9.52;;;21.70;93.00;;;;;;5053931;28;20114;-69
2022/09/10 04:50:54;;;;;;;13.45;7.68;;;21.60;93.10;;;;;;5052837;28;20484;-71
2022/09/10 04:53:20;;;;;;;9.90;7.22;;;21.70;93.20;;;;;;5052837;28;20029;-70
2022/09/10 04:55:48;;;;;;;10.82;8.48;;;21.70;93.00;;;;;;5052937;28;20389;-70
2022/09/10 04:58:13;;;;;;;14.50;9.10;;;21.70;93.10;;;;;;5052636;28;20021;-69
2022/09/10 05:00:39;;;;;;;11.95;8.20;;;21.70;93.00;;;;;;5050424;28;20029;-70
2022/09/10 05:03:05;;;;;;;14.45;9.88;;;21.70;93.00;;;;;;5051071;28;20033;-72
2022/09/10 05:05:32;;;;;;;13.38;9.05;;;21.60;93.10;;;;;;5051683;28;20100;-70
2022/09/10 05:07:59;;;;;;;13.98;9.70;;;21.70;93.00;;;;;;5050567;28;20056;-70
2022/09/10 05:10:26;;;;;;;13.65;11.45;;;21.60;93.10;;;;;;5052526;28;20017;-72
2022/09/10 05:12:52;;;;;;;15.02;12.18;;;21.20;93.70;;;;;;5052433;28;20025;-72
2022/09/10 05:15:17;;;;;;;18.75;13.73;;;19.10;98.60;;;;;;5055724;28;20082;-73
2022/09/10 05:17:43;;;;;;;15.65;13.10;;;18.20;99.90;;;;;;5056710;28;20029;-71
2022/09/10 05:20:09;;;;;;;19.27;14.57;;;18.10;99.90;;;;;;5056305;28;20086;-72
2022/09/10 05:22:35;;;;;;;18.80;14.35;;;17.90;99.90;;;;;;5056897;28;20055;-73
2022/09/10 05:25:01;;;;;;;22.35;15.30;;;17.80;99.90;;;;;;5056483;28;20533;-74
2022/09/10 05:27:27;;;;;;;14.02;11.20;;;17.80;99.90;;;;;;5056575;28;20021;-73
2022/09/10 05:29:52;;;;;;;15.15;11.70;;;18.00;99.90;;;;;;5056645;28;20365;-73
2022/09/10 05:32:18;;;;;;;16.80;14.70;;;18.10;99.90;;;;;;5056561;28;20029;-73
2022/09/10 05:34:47;;;;;;;18.08;15.40;;;17.70;99.90;;;;;;5055882;28;20060;-73
2022/09/10 05:37:14;;;;;;;19.08;14.27;;;17.80;99.90;;;;;;5056588;28;20033;-72
2022/09/10 05:39:40;;;;;;;12.10;8.63;;;17.60;99.90;;;;;;5052188;28;20041;-70
2022/09/10 05:42:06;;;;;;;18.15;15.05;;;18.00;99.90;;;;;;5052660;28;20041;-73
2022/09/10 05:44:31;;;;;;;22.13;15.85;;;17.90;99.90;;;;;;5044511;28;20028;-73
2022/09/10 05:46:57;;;;;;;22.40;16.38;;;17.50;99.90;;;;;;5037679;28;20126;-73
2022/09/10 05:49:22;;;;;;;21.98;16.15;;;17.30;99.90;;;;;;5033703;28;20030;-74
2022/09/10 05:51:48;;;;;;;19.42;15.02;;;17.20;99.90;;;;;;5034955;28;20029;-70
2022/09/10 05:54:15;;;;;;;21.58;13.88;;;17.30;99.90;;;;;;5038166;28;20142;-71
2022/09/10 05:56:40;;;;;;;22.33;16.20;;;17.40;99.90;;;;;;5047710;28;20025;-69
2022/09/10 05:59:08;;;;;;;22.77;18.45;;;17.40;99.90;;;;;;5044219;28;20021;-69
2022/09/10 06:01:34;;;;;;;21.08;16.48;;;17.30;99.90;;;;;;5045480;28;20029;-70
2022/09/10 06:03:59;;;;;;;20.08;16.02;;;17.30;99.90;;;;;;5047880;28;20116;-70
2022/09/10 06:06:27;;;;;;;19.08;15.98;;;17.20;99.90;;;;;;5053322;28;20101;-70
2022/09/10 06:08:53;;;;;;;18.55;16.48;;;17.10;99.90;;;;;;5055641;28;20071;-70
2022/09/10 06:11:19;;;;;;;18.58;15.23;;;17.20;99.90;;;;;;5034988;28;20025;-69
2022/09/10 06:13:45;;;;;;;10.82;5.55;;;17.20;99.90;;;;;;5044324;28;20124;-70
2022/09/10 06:16:11;;;;;;;12.20;7.70;;;18.40;99.90;;;;;;5045666;28;20127;-69
2022/09/10 06:18:37;;;;;;;9.38;7.25;;;18.80;99.90;;;;;;5061326;28;20028;-69
2022/09/10 06:21:10;;;;;;;15.55;11.60;;;19.10;99.90;;;;;;5062450;28;20017;-70
2022/09/10 06:23:35;;;;;;;16.40;14.05;;;19.20;99.90;;;;;;5062466;28;20032;-68
2022/09/10 06:26:04;;;;;;;16.35;14.60;;;18.60;99.90;;;;;;5046583;28;20026;-69
2022/09/10 06:28:31;;;;;;;7.70;5.93;;;17.90;99.90;;;;;;5040517;28;20485;-69
2022/09/10 06:30:57;;;;;;;6.57;2.95;;;18.90;99.90;;;;;;5035092;28;20018;-69
2022/09/10 06:33:22;;;;;;;12.68;6.95;;;19.30;99.90;;;;;;5047894;28;20033;-69
2022/09/10 06:35:56;;;;;;;14.18;9.05;;;19.60;99.90;;;;;;5065323;28;20032;-68
2022/09/10 06:38:22;;;;;;;9.98;8.55;;;19.80;99.90;;;;;;5055164;28;20052;-68
2022/09/10 06:40:59;;;;;;;6.18;2.58;;;19.80;99.90;;;;;;5041605;28;20037;-69
2022/09/10 06:43:25;;;;;;;5.60;2.70;;;19.80;99.90;;;;;;5035293;28;20453;-69
2022/09/10 06:45:54;;;;;;;7.00;3.53;;;20.50;99.90;;;;;;5036467;28;20083;-69
2022/09/10 06:48:21;;;;;;;20.23;10.80;;;20.80;99.50;;;;;;5042076;28;20409;-69
2022/09/10 06:50:55;;;;;;;11.93;8.25;;;20.30;99.90;;;;;;5047485;28;20120;-69
2022/09/10 06:53:22;;;;;;;13.32;8.13;;;20.30;99.90;;;;;;5034494;28;20418;-69
2022/09/10 06:55:51;;;;;;;10.75;8.35;;;20.70;99.50;;;;;;5034150;28;20022;-71
2022/09/10 06:58:18;;;;;;;10.70;8.18;;;20.90;98.70;;;;;;5034526;28;20034;-69
2022/09/10 07:00:49;;;;;;;9.15;4.97;;;21.00;98.30;;;;;;5034325;28;20475;-64
2022/09/10 07:03:16;;;;;;;13.15;8.82;;;21.00;98.60;;;;;;5033400;28;20496;-65
2022/09/10 07:05:43;;;;;;;10.90;5.22;;;20.80;99.20;;;;;;5034795;28;20021;-65
2022/09/10 07:08:12;;;;;;;7.90;4.32;;;20.60;99.50;;;;;;5034055;28;20030;-64
2022/09/10 07:10:38;;;;;;;6.22;3.70;;;20.50;99.80;;;;;;5034660;28;20025;-69
2022/09/10 07:13:04;;;;;;;10.43;7.00;;;20.50;99.90;;;;;;5034582;28;20033;-72
2022/09/10 07:15:30;;;;;;;10.85;6.72;;;20.30;99.90;;;;;;5034440;28;20490;-64
2022/09/10 07:17:55;;;;;;;12.38;8.48;;;20.40;99.90;;;;;;5034308;28;20044;-65
2022/09/10 07:20:27;;;;;;;10.38;7.68;;;20.40;99.90;;;;;;5034548;28;20026;-64
2022/09/10 07:22:54;;;;;;;10.23;8.10;;;20.40;99.90;;;;;;5034307;28;20040;-64
2022/09/10 07:25:20;;;;;;;12.27;8.43;;;20.30;99.90;;;;;;5033138;28;20021;-65
2022/09/10 07:27:46;;;;;;;6.82;4.03;;;20.30;99.90;;;;;;5034412;28;20017;-70
2022/09/10 07:30:12;;;;;;;11.40;6.57;;;20.30;99.90;;;;;;5034060;28;20370;-73
2022/09/10 07:32:39;;;;;;;12.98;7.82;;;20.30;99.90;;;;;;5034238;28;20054;-74
2022/09/10 07:35:06;;;;;;;6.30;3.25;;;20.40;99.90;;;;;;5034547;28;20041;-73
2022/09/10 07:37:32;;;;;;;11.90;6.20;;;20.40;99.90;;;;;;5034166;28;20104;-72
2022/09/10 07:39:58;;;;;;;7.75;5.35;;;20.40;99.90;;;;;;5033639;28;20028;-71
2022/09/10 07:42:24;;;;;;;11.90;7.60;;;20.40;99.90;;;;;;5033980;28;20510;-73
2022/09/10 07:44:50;;;;;;;11.13;6.63;;;20.40;99.90;;;;;;5033990;28;20578;-73
2022/09/10 07:47:15;;;;;;;8.45;5.28;;;20.40;99.90;;;;;;5033856;28;20028;-74
2022/09/10 07:49:43;;;;;;;9.27;5.38;;;20.40;99.90;;;;;;5034057;28;20052;-74
2022/09/10 07:52:12;;;;;;;10.52;7.45;;;20.40;99.90;;;;;;5033719;28;20033;-73
2022/09/10 07:54:38;;;;;;;14.95;7.78;;;20.40;99.90;;;;;;5034692;28;20028;-72
2022/09/10 07:57:04;;;;;;;12.50;8.25;;;20.40;99.90;;;;;;5034377;28;20029;-74
2022/09/10 07:59:30;;;;;;;12.05;7.65;;;20.40;99.90;;;;;;5033645;28;20028;-74
2022/09/10 08:01:58;;;;;;;7.93;6.15;;;20.50;99.90;;;;;;5033505;28;20123;-74
2022/09/10 08:04:24;;;;;;;8.80;4.47;;;20.40;99.90;;;;;;5033672;28;20512;-74
2022/09/10 08:06:50;;;;;;;6.85;4.13;;;20.50;99.90;;;;;;5033523;28;20021;-74
2022/09/10 08:09:18;;;;;;;9.23;4.85;;;20.50;99.90;;;;;;5033577;28;20033;-73
2022/09/10 08:11:44;;;;;;;9.65;4.88;;;20.50;99.90;;;;;;5033811;28;20029;-74
2022/09/10 08:14:12;;;;;;;10.63;5.22;;;20.50;99.90;;;;;;5033225;28;20091;-73
2022/09/10 08:16:37;;;;;;;7.88;5.80;;;20.50;99.90;;;;;;5033592;28;20018;-73
2022/09/10 08:19:04;;;;;;;11.25;4.72;;;20.50;99.90;;;;;;5033423;28;20021;-73
2022/09/10 08:21:30;;;;;;;11.70;7.47;;;20.50;99.90;;;;;;5032570;28;20048;-64
2022/09/10 08:23:56;;;;;;;8.32;6.07;;;20.50;99.90;;;;;;5032699;28;20033;-74
2022/09/10 08:26:24;;;;;;;12.23;8.13;;;20.50;99.90;;;;;;5049603;28;20086;-73
2022/09/10 08:28:50;;;;;;;11.18;6.88;;;20.50;99.90;;;;;;5056260;28;20438;-71
2022/09/10 08:31:16;;;;;;;6.38;3.85;;;20.50;99.90;;;;;;5046015;28;20047;-73
2022/09/10 08:33:47;;;;;;;10.73;4.85;;;20.50;99.90;;;;;;5058473;28;20055;-69
2022/09/10 08:36:15;;;;;;;5.60;2.50;;;20.50;99.90;;;;;;5061245;28;20335;-74
2022/09/10 08:38:42;;;;;;;5.13;2.38;;;20.60;99.90;;;;;;5059346;28;20025;-70
2022/09/10 08:41:31;;;;;;;7.97;3.97;;;20.60;99.90;;;;;;5047293;28;20025;-69
2022/09/10 08:44:19;;;;;;;6.15;2.10;;;20.60;99.90;;;;;;5052825;28;20073;-72
2022/09/10 08:46:54;;;;;;;7.53;2.42;;;20.70;99.90;;;;;;5046636;28;20029;-64
2022/09/10 08:49:38;;;;;;;3.25;1.85;;;20.70;99.80;;;;;;5055413;28;20574;-74
2022/09/10 08:52:20;;;;;;;5.88;2.05;;;20.80;99.70;;;;;;5047520;28;20051;-63
2022/09/10 08:55:00;;;;;;;6.00;3.03;;;20.70;99.70;;;;;;5050443;28;20454;-67
2022/09/10 08:57:40;;;;;;;6.43;3.78;;;20.80;99.80;;;;;;5045570;28;20036;-67
2022/09/10 09:00:10;;;;;;;8.88;3.90;;;20.80;99.80;;;;;;5052049;28;20033;-63
2022/09/10 09:03:15;;;;;;;8.98;5.88;;;20.80;99.80;;;;;;5044680;28;20408;-73
2022/09/10 09:05:47;;;;;;;8.70;4.63;;;20.80;99.80;;;;;;5036855;28;20087;-68
2022/09/10 09:08:17;;;;;;;9.57;4.82;;;20.80;99.90;;;;;;5052757;28;20477;-71
2022/09/10 09:11:19;;;;;;;7.88;5.00;;;20.80;99.90;;;;;;5039387;28;20562;-64
2022/09/10 09:14:24;;;;;;;6.78;3.85;;;20.70;99.90;;;;;;5035698;28;20068;-63
2022/09/10 09:17:07;;;;;;;7.88;5.13;;;20.80;99.90;;;;;;5040518;28;20025;-68
2022/09/10 09:19:49;;;;;;;8.68;4.05;;;20.70;99.90;;;;;;5048156;28;20117;-70
2022/09/10 09:22:33;;;;;;;10.93;6.50;;;20.70;99.90;;;;;;5035425;28;20031;-64
2022/09/10 09:25:08;;;;;;;8.55;4.88;;;20.80;99.90;;;;;;5041248;28;20052;-63
2022/09/10 09:27:40;;;;;;;10.23;4.97;;;20.80;99.90;;;;;;5036987;28;20104;-64
2022/09/10 09:30:15;;;;;;;10.18;5.63;;;20.80;99.90;;;;;;5052484;28;20397;-63
2022/09/10 09:32:44;;;;;;;5.53;4.13;;;20.80;99.90;;;;;;5042634;28;20228;-72
2022/09/10 09:35:31;;;;;;;10.80;4.70;;;20.80;99.90;;;;;;5040296;28;20029;-73
2022/09/10 09:38:05;;;;;;;6.47;3.90;;;20.70;99.90;;;;;;5043612;28;20039;-75
2022/09/10 09:40:48;;;;;;;4.97;3.22;;;20.80;99.90;;;;;;5039215;28;20117;-75
2022/09/10 09:43:42;;;;;;;9.00;4.82;;;20.80;99.90;;;;;;5041217;28;20037;-74
2022/09/10 09:46:14;;;;;;;10.55;6.35;;;20.80;99.90;;;;;;5032391;28;20041;-67
2022/09/10 09:48:41;;;;;;;8.95;4.85;;;20.80;99.90;;;;;;5032937;28;20378;-63
2022/09/10 09:51:11;;;;;;;20.42;4.93;;;20.70;99.90;;;;;;5031967;28;20053;-66
2022/09/10 09:53:39;;;;;;;8.95;5.30;;;20.80;99.90;;;;;;5032212;28;20032;-64
2022/09/10 09:56:11;;;;;;;12.23;4.63;;;20.80;99.90;;;;;;5032199;28;20018;-63
2022/09/10 09:58:39;;;;;;;12.50;6.03;;;20.80;99.90;;;;;;5051792;28;20035;-70
2022/09/10 10:01:08;;;;;;;11.40;6.43;;;20.80;99.90;;;;;;5032939;28;20057;-63
2022/09/10 10:03:51;;;;;;;8.63;4.85;;;20.80;99.90;;;;;;5039261;28;20069;-70
2022/09/10 10:06:30;;;;;;;9.07;6.00;;;20.80;99.90;;;;;;5041911;28;20482;-65
2022/09/10 10:09:18;;;;;;;10.32;7.07;;;20.80;99.90;;;;;;5046549;28;20474;-67
2022/09/10 10:11:49;;;;;;;6.80;3.30;;;20.80;99.90;;;;;;5042101;28;20109;-63
2022/09/10 10:14:21;;;;;;;9.52;4.07;;;20.70;99.90;;;;;;5041372;28;20083;-63
2022/09/10 10:16:50;;;;;;;9.25;5.07;;;20.80;99.90;;;;;;5049926;28;20025;-66
2022/09/10 10:19:35;;;;;;;12.43;5.47;;;20.70;99.90;;;;;;5052557;28;20025;-66
2022/09/10 10:22:13;;;;;;;8.02;2.95;;;20.80;99.90;;;;;;5052035;28;20028;-69
2022/09/10 10:24:41;;;;;;;5.80;3.03;;;20.80;99.90;;;;;;5049136;28;20424;-71
2022/09/10 10:27:18;;;;;;;8.23;4.80;;;20.70;99.90;;;;;;5053640;28;20051;-72
2022/09/10 10:30:00;;;;;;;4.90;2.60;;;20.70;99.90;;;;;;5049081;28;20064;-70
2022/09/10 10:32:55;;;;;;;9.57;3.53;;;20.80;99.90;;;;;;5049177;28;20099;-72
2022/09/10 10:35:47;;;;;;;11.45;5.22;;;20.80;99.90;;;;;;5038503;28;20105;-73
2022/09/10 10:38:16;;;;;;;;;;;20.60;99.90;;;;;;5043559;28;20490;-72
2022/09/10 10:41:13;;;;;;;13.98;5.55;;;20.60;99.90;;;;;;5053701;28;20003;-73
2022/09/10 10:43:57;;;;;;;7.10;4.55;;;20.60;99.90;;;;;;5036191;28;20514;-73
2022/09/10 10:46:30;;;;;;;11.80;4.93;;;20.60;99.90;;;;;;5034797;28;20046;-71
2022/09/10 10:49:14;;;;;;;10.23;5.32;;;20.60;99.90;;;;;;5034869;28;20045;-73
2022/09/10 10:52:07;;;;;;;8.30;5.07;;;20.60;99.90;;;;;;5035124;28;20017;-70
2022/09/10 10:54:42;;;;;;;7.03;4.25;;;20.70;99.90;;;;;;5035612;28;20454;-72
2022/09/10 10:57:29;;;;;;;5.85;3.28;;;20.70;99.90;;;;;;5045335;28;20025;-66
2022/09/10 11:00:27;;;;;;;9.70;4.28;;;20.80;99.90;;;;;;5062749;28;20025;-64
2022/09/10 11:03:30;;;;;;;9.00;4.65;;;20.70;99.90;;;;;;5036210;28;20053;-68
2022/09/10 11:06:07;;;;;;;;;;;20.80;99.90;;;;;;5037332;28;20120;-71
2022/09/10 11:08:40;;;;;;;9.93;4.22;;;20.80;99.90;;;;;;5066294;28;19908;-67
2022/09/10 11:11:37;;;;;;;8.45;3.80;;;20.80;99.90;;;;;;5038032;28;20087;-68
2022/09/10 11:14:26;;;;;;;11.00;4.20;;;20.90;99.90;;;;;;5057308;28;20033;-63
2022/09/10 11:17:29;;;;;;;7.60;3.30;;;20.90;99.90;;;;;;5056160;28;20082;-63
2022/09/10 11:20:00;;;;;;;7.10;3.60;;;20.90;99.90;;;;;;5040156;28;20107;-63
2022/09/10 11:22:34;;;;;;;8.10;3.50;;;20.90;99.90;;;;;;5057770;28;20534;-67
2022/09/10 11:25:15;;;;;;;7.75;4.63;;;20.90;99.90;;;;;;5042664;28;20025;-65
2022/09/10 11:27:47;;;;;;;8.93;4.60;;;20.90;99.90;;;;;;5046634;28;20063;-64
2022/09/10 11:30:15;;;;;;;11.05;4.90;;;20.90;99.90;;;;;;5048452;28;20373;-66
2022/09/10 11:33:03;;;;;;;7.88;4.30;;;20.90;99.90;;;;;;5048828;28;20021;-66
2022/09/10 11:35:44;;;;;;;7.25;3.60;;;20.90;99.90;;;;;;5058421;28;20033;-63
2022/09/10 11:38:47;;;;;;;10.05;4.40;;;21.00;99.90;;;;;;5062326;28;20031;-63
2022/09/10 11:41:21;;;;;;;9.55;6.25;;;21.00;99.90;;;;;;5025206;28;20041;-62
2022/09/10 11:43:58;;;;;;;10.27;4.88;;;20.90;99.90;;;;;;5040783;28;20037;-63
2022/09/10 11:46:48;;;;;;;9.20;6.35;;;20.90;99.90;;;;;;5056218;28;20055;-62
2022/09/10 11:49:21;;;;;;;11.95;7.53;;;20.80;99.90;;;;;;5034101;28;20041;-64
2022/09/10 11:51:47;;;;;;;10.32;5.57;;;20.80;99.90;;;;;;5041151;28;20374;-64
2022/09/10 11:54:16;;;;;;;12.52;6.22;;;20.80;99.90;;;;;;5045548;28;20024;-63
2022/09/10 11:57:05;;;;;;;9.65;6.35;;;20.80;99.90;;;;;;5048575;28;20379;-67
2022/09/10 12:00:10;;;;;;;11.90;6.95;;;20.80;99.90;;;;;;5040878;28;20105;-70
2022/09/10 12:02:48;;;;;;;15.45;9.80;;;20.80;99.90;;;;;;5037512;28;20060;-71
2022/09/10 12:05:50;;;;;;;12.30;9.23;;;20.80;99.90;;;;;;5061835;28;20107;-69
2022/09/10 12:08:37;;;;;;;13.50;8.23;;;20.70;99.90;;;;;;5035878;28;20041;-65
2022/09/10 12:11:18;;;;;;;15.65;9.63;;;20.80;99.90;;;;;;5038511;28;20474;-64
2022/09/10 12:13:45;;;;;;;16.70;8.70;;;20.80;99.90;;;;;;5046513;28;20041;-64
2022/09/10 12:16:19;;;;;;;17.42;8.23;;;20.80;99.90;;;;;;5039525;28;20021;-65
2022/09/10 12:18:50;;;;;;;15.90;6.65;;;20.70;99.90;;;;;;5051323;28;20025;-64
2022/09/10 12:21:56;;;;;;;9.32;5.55;;;20.70;99.90;;;;;;5034685;28;20032;-64
2022/09/10 12:24:29;;;;;;;11.48;5.78;;;20.70;99.90;;;;;;5053835;28;20085;-65
2022/09/10 12:26:56;;;;;;;6.95;4.70;;;20.70;99.90;;;;;;5049112;28;20064;-64
2022/09/10 12:29:37;;;;;;;6.13;3.40;;;20.70;99.90;;;;;;5044041;28;20025;-71
2022/09/10 12:32:14;;;;;;;8.80;2.85;;;20.70;99.90;;;;;;5035793;28;20043;-67
2022/09/10 12:34:40;;;;;;;7.32;3.20;;;20.70;99.90;;;;;;5038756;28;20075;-72
2022/09/10 12:37:21;;;;;;;4.97;3.00;;;20.70;99.90;;;;;;5054989;28;20028;-70
2022/09/10 12:39:48;;;;;;;6.35;2.90;;;20.70;99.90;;;;;;5068172;28;20024;-69
2022/09/10 12:42:26;;;;;;;7.47;3.13;;;20.70;99.90;;;;;;5050951;28;20037;-71
2022/09/10 12:44:53;;;;;;;5.57;3.03;;;20.70;99.90;;;;;;5038071;28;20071;-72
2022/09/10 12:47:27;;;;;;;6.45;3.40;;;20.70;99.90;;;;;;5042650;28;20513;-70
2022/09/10 12:49:57;;;;;;;8.13;3.53;;;20.70;99.90;;;;;;5037116;28;20029;-72
2022/09/10 12:52:55;;;;;;;7.80;3.45;;;20.70;99.90;;;;;;5044644;28;20100;-67
2022/09/10 12:55:49;;;;;;;9.65;3.95;;;20.70;99.90;;;;;;5042170;28;20406;-73
2022/09/10 12:58:41;;;;;;;5.38;3.50;;;20.70;99.90;;;;;;5032777;28;20130;-71
2022/09/10 13:01:27;;;;;;;6.80;3.67;;;20.70;99.90;;;;;;5037733;28;20074;-71
2022/09/10 13:03:57;;;;;;;6.53;3.30;;;20.80;99.90;;;;;;5038685;28;20041;-72
2022/09/10 13:06:41;;;;;;;7.03;2.65;;;20.80;99.90;;;;;;5034754;28;20026;-63
2022/09/10 13:09:44;;;;;;;6.60;2.70;;;20.90;99.90;;;;;;5035842;28;20033;-67